Aviation Digital Data Service (ADDS)

Output produced by METARs form (0251 UTC 23 February 2017)
found at http://aviationweather.gov/adds/metars/
 
KMPV 222339Z 2300/2324 00000KT P6SM SCT200 
     FM230300 00000KT P6SM OVC035 
     FM231400 18007KT P6SM OVC035 
     FM232200 23009KT P6SM VCSH OVC035